map of FSC home
FSC - Airport
Location
City:  Figari, Corse (Corsica), France
Name:Sud Corse
ICAO:LFKF
IATA:FSC

Details
Type:Airport (Aerodrome, Airfield)
Use:Public/Civil
Latitude:4130'08"N (41.502222)
Longitude:905'48"E (9.096667)
Elevation:87 ft (27 m)
Variation:2.38E (WMM2015 magnetic declination)
0.11 annual change
Runways:1
Longest:8136 × 148 ft (2480 × 45 m), paved

Time
Time Zone:UTC+1 (DST+2)
Local Time:

Weather
METAR:LFKF 150030Z AUTO 25013KT 9999 BKN016 BKN023 BKN029 15/12 Q1009
TAF:LFKF 142133Z 1421/1515 CNL

Related Locations
Nearby:
Farthest:CHT: 12114 mi / 19495 km
Waitangi [Tuuta], CIT, NZ

Find:

   beyond  
but within

Other Information
Maps:
NOTAMs:
Links:
Sources:

  
flag of France
flag of Corse (Corsica)
  

Sectional Chart

Flight Planning
at skyvector.com

Satellite Image

Google Maps Satellite view

 

Copyright © 2004-2017 Karl L. Swartz. All rights reserved.
The Great Circle Mapper name and logo are trademarks of the Great Circle Mapper.
All other trademarks mentioned herein belong to their respective owners.
Please see credits for attibutions and further copyright information.

  Follow gcmap on Facebook Follow gcmap on Twitter Follow gcmap on Google+ GCmap on LinkedIn

hCard Microformat

Geo Microformat